createdAt,value
2023-02-09T00:01:26.821Z,12.40
2023-02-09T00:03:53.637Z,10.80
2023-02-09T00:06:21.816Z,10.00
2023-02-09T00:08:48.345Z,11.68
2023-02-09T00:11:20.142Z,10.27
2023-02-09T00:13:46.795Z,9.15
2023-02-09T00:16:13.786Z,10.55
2023-02-09T00:18:40.509Z,9.68
2023-02-09T00:21:10.721Z,9.45
2023-02-09T00:23:39.565Z,9.90
2023-02-09T00:26:09.720Z,10.20
2023-02-09T00:28:36.472Z,9.80
2023-02-09T00:31:10.864Z,9.63
2023-02-09T00:33:40.557Z,10.57
2023-02-09T00:36:11.437Z,9.57
2023-02-09T00:38:38.021Z,9.75
2023-02-09T00:41:04.789Z,10.30
2023-02-09T00:43:32.110Z,9.98
2023-02-09T00:45:58.597Z,9.52
2023-02-09T00:48:25.553Z,8.52
2023-02-09T00:50:52.892Z,9.27
2023-02-09T00:53:21.386Z,10.75
2023-02-09T00:55:49.253Z,9.88
2023-02-09T00:58:17.112Z,9.18
2023-02-09T01:00:44.552Z,9.80
2023-02-09T01:03:12.019Z,10.38
2023-02-09T01:05:40.143Z,9.82
2023-02-09T01:08:06.722Z,10.63
2023-02-09T01:10:33.281Z,10.38
2023-02-09T01:12:59.887Z,10.65
2023-02-09T01:15:28.921Z,10.60
2023-02-09T01:17:55.377Z,9.80
2023-02-09T01:20:22.019Z,9.45
2023-02-09T01:22:48.439Z,10.02
2023-02-09T01:25:14.911Z,10.05
2023-02-09T01:27:42.365Z,10.05
2023-02-09T01:30:09.758Z,10.88
2023-02-09T01:32:37.189Z,10.23
2023-02-09T01:35:03.829Z,10.70
2023-02-09T01:37:30.372Z,10.38
2023-02-09T01:39:56.839Z,11.10
2023-02-09T01:42:23.479Z,12.40
2023-02-09T01:44:49.986Z,10.10
2023-02-09T01:47:19.120Z,11.20
2023-02-09T01:49:49.889Z,9.48
2023-02-09T01:52:21.071Z,8.45
2023-02-09T01:54:56.810Z,9.77
2023-02-09T01:57:37.225Z,9.20
2023-02-09T02:00:10.982Z,9.90
2023-02-09T02:02:47.844Z,9.37
2023-02-09T02:05:15.273Z,8.35
2023-02-09T02:08:19.549Z,8.80
2023-02-09T02:10:46.439Z,8.90
2023-02-09T02:13:13.119Z,8.48
2023-02-09T02:15:59.745Z,9.85
2023-02-09T02:18:38.623Z,9.65
2023-02-09T02:21:33.771Z,9.68
2023-02-09T02:24:06.332Z,9.27
2023-02-09T02:26:48.859Z,9.32
2023-02-09T02:29:36.895Z,9.40
2023-02-09T02:32:26.314Z,8.20
2023-02-09T02:35:08.537Z,8.05
2023-02-09T02:38:19.772Z,8.35
2023-02-09T02:41:03.769Z,8.20
2023-02-09T02:43:43.354Z,8.25
2023-02-09T02:46:20.671Z,8.10
2023-02-09T02:48:59.432Z,8.35
2023-02-09T02:51:42.239Z,8.65
2023-02-09T02:54:15.670Z,7.90
2023-02-09T02:56:50.958Z,7.43
2023-02-09T02:59:22.959Z,10.40
2023-02-09T03:02:06.306Z,8.05
2023-02-09T03:04:35.491Z,9.05
2023-02-09T03:07:05.549Z,8.88
2023-02-09T03:09:32.058Z,8.25
2023-02-09T03:12:15.448Z,9.30
2023-02-09T03:14:49.493Z,9.18
2023-02-09T03:17:29.036Z,9.40
2023-02-09T03:20:02.407Z,8.57
2023-02-09T03:22:36.849Z,7.85
2023-02-09T03:25:12.751Z,8.10
2023-02-09T03:27:55.517Z,7.30
2023-02-09T03:30:23.433Z,7.75
2023-02-09T03:32:56.111Z,9.15
2023-02-09T03:35:26.326Z,7.93
2023-02-09T03:37:52.815Z,7.72
2023-02-09T03:40:19.765Z,8.15
2023-02-09T03:42:46.343Z,7.65
2023-02-09T03:45:12.979Z,6.88
2023-02-09T03:47:39.387Z,8.10
2023-02-09T03:50:07.345Z,8.70
2023-02-09T03:52:33.974Z,8.27
2023-02-09T03:55:00.345Z,8.30
2023-02-09T03:57:26.795Z,9.13
2023-02-09T03:59:53.180Z,10.60
2023-02-09T04:02:19.648Z,9.65
2023-02-09T04:04:46.142Z,9.68
2023-02-09T04:07:13.866Z,9.82
2023-02-09T04:09:40.422Z,10.93
2023-02-09T04:12:07.019Z,9.60
2023-02-09T04:14:33.417Z,7.55
2023-02-09T04:16:59.833Z,7.68
2023-02-09T04:19:26.277Z,8.65
2023-02-09T04:21:52.661Z,8.38
2023-02-09T04:24:26.023Z,9.40
2023-02-09T04:26:52.441Z,8.57
2023-02-09T04:29:18.885Z,8.15
2023-02-09T04:31:45.390Z,8.05
2023-02-09T04:34:11.818Z,9.02
2023-02-09T04:36:38.230Z,8.43
2023-02-09T04:39:04.629Z,7.82
2023-02-09T04:41:31.035Z,9.57
2023-02-09T04:43:57.498Z,8.88
2023-02-09T04:46:23.979Z,8.80
2023-02-09T04:48:50.456Z,7.88
2023-02-09T04:51:16.917Z,7.60
2023-02-09T04:53:43.361Z,8.88
2023-02-09T04:56:15.119Z,8.20
2023-02-09T04:59:00.770Z,9.35
2023-02-09T05:01:27.425Z,9.13
2023-02-09T05:03:53.941Z,11.70
2023-02-09T05:06:20.966Z,12.10
2023-02-09T05:08:48.562Z,10.88
2023-02-09T05:11:15.561Z,12.02
2023-02-09T05:13:42.425Z,11.48
2023-02-09T05:16:13.362Z,10.55
2023-02-09T05:18:39.991Z,11.32
2023-02-09T05:21:06.549Z,10.38
2023-02-09T05:23:33.527Z,10.40
2023-02-09T05:26:00.204Z,9.75
2023-02-09T05:28:26.748Z,9.98
2023-02-09T05:30:56.171Z,9.68
2023-02-09T05:33:24.409Z,10.77
2023-02-09T05:35:52.335Z,9.90
2023-02-09T05:38:19.217Z,10.63
2023-02-09T05:40:45.652Z,11.93
2023-02-09T05:43:12.249Z,11.43
2023-02-09T05:45:39.017Z,10.50
2023-02-09T05:48:05.563Z,11.32
2023-02-09T05:50:32.112Z,10.63
2023-02-09T05:52:59.691Z,11.68
2023-02-09T05:55:26.216Z,10.75
2023-02-09T05:57:52.624Z,10.60
2023-02-09T06:00:19.367Z,11.10
2023-02-09T06:02:45.873Z,10.98
2023-02-09T06:05:12.468Z,11.07
2023-02-09T06:07:38.911Z,10.88
2023-02-09T06:10:05.473Z,12.57
2023-02-09T06:12:31.851Z,10.85
2023-02-09T06:14:58.226Z,12.48
2023-02-09T06:17:24.689Z,12.38
2023-02-09T06:19:51.110Z,12.23
2023-02-09T06:22:17.549Z,11.43
2023-02-09T06:24:43.936Z,12.70
2023-02-09T06:27:11.787Z,12.25
2023-02-09T06:29:38.157Z,11.18
2023-02-09T06:32:04.877Z,11.45
2023-02-09T06:34:31.329Z,11.65
2023-02-09T06:36:57.783Z,11.85
2023-02-09T06:39:24.398Z,10.82
2023-02-09T06:41:51.854Z,11.40
2023-02-09T06:44:18.801Z,11.80
2023-02-09T06:46:45.241Z,13.50
2023-02-09T06:49:11.631Z,16.35
2023-02-09T06:51:38.241Z,15.52
2023-02-09T06:54:04.851Z,14.95
2023-02-09T06:56:31.309Z,17.13
2023-02-09T06:58:57.877Z,14.55
2023-02-09T07:01:24.409Z,15.25
2023-02-09T07:03:50.883Z,16.65
2023-02-09T07:06:19.194Z,15.30
2023-02-09T07:08:46.403Z,17.00
2023-02-09T07:11:15.680Z,15.57
2023-02-09T07:13:42.663Z,15.70
2023-02-09T07:16:11.287Z,15.95
2023-02-09T07:18:38.527Z,14.65
2023-02-09T07:21:08.534Z,14.23
2023-02-09T07:23:35.384Z,13.07
2023-02-09T07:26:07.009Z,12.40
2023-02-09T07:28:35.408Z,12.25
2023-02-09T07:31:04.875Z,11.73
2023-02-09T07:33:31.895Z,12.18
2023-02-09T07:35:58.575Z,11.35
2023-02-09T07:38:25.262Z,12.02
2023-02-09T07:40:51.811Z,13.43
2023-02-09T07:43:18.192Z,13.98
2023-02-09T07:45:44.833Z,13.52
2023-02-09T07:48:11.725Z,12.55
2023-02-09T07:50:38.339Z,12.65
2023-02-09T07:53:04.750Z,12.30
2023-02-09T07:55:31.342Z,11.50
2023-02-09T07:57:57.800Z,12.82
2023-02-09T08:00:25.465Z,11.93
2023-02-09T08:02:52.533Z,11.50
2023-02-09T08:05:37.282Z,12.55
2023-02-09T08:08:03.746Z,12.55
2023-02-09T08:10:30.212Z,12.18
2023-02-09T08:13:02.516Z,11.93
2023-02-09T08:15:34.649Z,12.40
2023-02-09T08:18:04.620Z,13.48
2023-02-09T08:20:32.143Z,12.73
2023-02-09T08:23:18.507Z,13.90
2023-02-09T08:25:45.129Z,15.38
2023-02-09T08:28:11.921Z,14.80
2023-02-09T08:30:38.347Z,15.07
2023-02-09T08:33:04.748Z,17.05
2023-02-09T08:35:31.526Z,15.82
2023-02-09T08:38:03.157Z,18.38
2023-02-09T08:40:30.740Z,18.98
2023-02-09T08:42:57.158Z,18.90
2023-02-09T08:45:24.459Z,17.33
2023-02-09T08:47:50.974Z,18.75
2023-02-09T08:50:17.410Z,18.10
2023-02-09T08:52:43.922Z,18.98
2023-02-09T08:55:10.464Z,19.92
2023-02-09T08:57:44.015Z,19.85
2023-02-09T09:00:11.940Z,20.27
2023-02-09T09:02:38.353Z,20.80
2023-02-09T09:05:05.054Z,20.95
2023-02-09T09:07:31.586Z,21.58
2023-02-09T09:09:57.976Z,20.50
2023-02-09T09:12:24.390Z,21.67
2023-02-09T09:14:51.155Z,20.50
2023-02-09T09:17:17.583Z,19.65
2023-02-09T09:19:44.037Z,20.48
2023-02-09T09:22:10.451Z,20.20
2023-02-09T09:24:40.593Z,21.55
2023-02-09T09:27:08.862Z,21.80
2023-02-09T09:29:35.926Z,21.65
2023-02-09T09:32:02.740Z,21.80
2023-02-09T09:34:29.294Z,21.38
2023-02-09T09:36:55.675Z,21.67
2023-02-09T09:39:22.148Z,20.02
2023-02-09T09:41:53.094Z,20.27
2023-02-09T09:44:30.644Z,22.15
2023-02-09T09:47:01.168Z,20.90
2023-02-09T09:49:31.386Z,22.63
2023-02-09T09:52:13.201Z,21.38
2023-02-09T09:54:41.390Z,22.85
2023-02-09T09:57:25.030Z,22.02
2023-02-09T09:59:53.156Z,21.92
2023-02-09T10:02:29.193Z,24.05
2023-02-09T10:05:06.846Z,23.42
2023-02-09T10:07:34.433Z,23.20
2023-02-09T10:10:10.979Z,20.65
2023-02-09T10:12:40.696Z,21.00
2023-02-09T10:15:32.694Z,22.15
2023-02-09T10:17:59.785Z,22.38
2023-02-09T10:20:45.974Z,24.50
2023-02-09T10:23:37.509Z,22.02
2023-02-09T10:28:37.627Z,22.08
2023-02-09T10:31:11.330Z,20.75
2023-02-09T10:33:42.951Z,22.20
2023-02-09T10:36:24.617Z,23.27
2023-02-09T10:38:52.273Z,24.20
2023-02-09T10:41:21.035Z,23.75
2023-02-09T10:43:52.537Z,22.00
2023-02-09T10:46:20.837Z,22.52
2023-02-09T10:48:47.678Z,22.40
2023-02-09T10:51:17.087Z,22.45
2023-02-09T10:53:55.595Z,23.20
2023-02-09T10:56:25.372Z,24.52
2023-02-09T10:59:03.360Z,23.80
2023-02-09T11:01:41.879Z,22.65
2023-02-09T11:04:21.950Z,23.35
2023-02-09T11:06:54.293Z,24.55
2023-02-09T11:09:28.035Z,23.48
2023-02-09T11:11:54.827Z,23.90
2023-02-09T11:14:21.948Z,24.48
2023-02-09T11:17:15.840Z,23.30
2023-02-09T11:20:05.014Z,24.80
2023-02-09T11:22:49.864Z,23.58
2023-02-09T11:25:49.802Z,23.92
2023-02-09T11:28:42.188Z,23.55
2023-02-09T11:31:24.185Z,23.30
2023-02-09T11:34:05.821Z,22.83
2023-02-09T11:39:25.042Z,23.23
2023-02-09T11:42:29.101Z,23.08
2023-02-09T11:45:02.559Z,22.13
2023-02-09T11:47:42.094Z,23.83
2023-02-09T11:50:10.757Z,23.30
2023-02-09T11:52:48.915Z,22.58
2023-02-09T11:55:27.685Z,23.40
2023-02-09T11:58:15.606Z,22.73
2023-02-09T12:01:13.315Z,25.35
2023-02-09T12:03:55.925Z,22.77
2023-02-09T12:06:24.045Z,22.25
2023-02-09T12:09:08.693Z,23.33
2023-02-09T12:11:50.286Z,23.02
2023-02-09T12:14:47.126Z,23.13
2023-02-09T12:18:12.971Z,24.45
2023-02-09T12:20:56.846Z,25.67
2023-02-09T12:23:43.451Z,25.88
2023-02-09T12:26:12.654Z,25.70
2023-02-09T12:28:40.555Z,25.02
2023-02-09T12:31:14.870Z,24.95
2023-02-09T12:33:47.396Z,24.80
2023-02-09T12:36:13.797Z,25.83
2023-02-09T12:38:56.762Z,24.40
2023-02-09T12:41:40.925Z,24.10
2023-02-09T12:44:10.402Z,23.50
2023-02-09T12:46:52.749Z,24.80
2023-02-09T12:49:21.712Z,24.55
2023-02-09T12:51:51.655Z,23.98
2023-02-09T12:54:54.720Z,22.75
2023-02-09T12:57:22.161Z,21.83
2023-02-09T13:00:09.557Z,18.65
2023-02-09T13:02:49.514Z,19.67
2023-02-09T13:05:23.497Z,18.38
2023-02-09T13:08:05.907Z,19.50
2023-02-09T13:10:41.162Z,20.10
2023-02-09T13:13:19.290Z,19.40
2023-02-09T13:16:00.909Z,20.10
2023-02-09T13:18:37.891Z,19.42
2023-02-09T13:21:15.934Z,19.92
2023-02-09T13:24:03.284Z,18.65
2023-02-09T13:26:34.839Z,19.98
2023-02-09T13:29:22.163Z,22.92
2023-02-09T13:31:54.621Z,27.40
2023-02-09T13:34:30.343Z,29.90
2023-02-09T13:37:18.851Z,31.27
2023-02-09T13:39:45.628Z,30.05
2023-02-09T13:42:19.441Z,31.48
2023-02-09T13:44:46.757Z,31.77
2023-02-09T13:47:15.669Z,29.27
2023-02-09T13:49:43.175Z,30.13
2023-02-09T13:52:16.382Z,29.30
2023-02-09T13:54:43.477Z,30.27
2023-02-09T13:57:31.295Z,31.15
2023-02-09T14:00:08.688Z,31.80
2023-02-09T14:02:49.948Z,29.48
2023-02-09T14:05:43.726Z,30.70
2023-02-09T14:08:13.286Z,32.35
2023-02-09T14:10:41.612Z,30.67
2023-02-09T14:13:21.608Z,32.00
2023-02-09T14:16:09.639Z,30.95
2023-02-09T14:18:54.485Z,31.75
2023-02-09T14:21:20.819Z,31.45
2023-02-09T14:23:56.995Z,31.80
2023-02-09T14:26:27.820Z,33.08
2023-02-09T14:29:17.607Z,32.65
2023-02-09T14:31:47.320Z,32.53
2023-02-09T14:34:23.874Z,32.33
2023-02-09T14:36:53.535Z,32.75
2023-02-09T14:39:21.116Z,32.78
2023-02-09T14:42:17.955Z,32.80
2023-02-09T14:44:56.133Z,32.88
2023-02-09T14:47:34.745Z,32.33
2023-02-09T14:50:02.244Z,34.38
2023-02-09T14:52:31.470Z,33.83
2023-02-09T14:55:01.959Z,33.17
2023-02-09T14:57:32.099Z,33.78
2023-02-09T14:59:58.610Z,32.08
2023-02-09T15:02:27.525Z,33.45
2023-02-09T15:04:54.821Z,31.85
2023-02-09T15:07:34.973Z,31.45
2023-02-09T15:10:06.810Z,23.88
2023-02-09T15:12:33.887Z,22.50
2023-02-09T15:15:01.608Z,21.65
2023-02-09T15:17:30.430Z,24.25
2023-02-09T15:19:58.255Z,21.05
2023-02-09T15:22:24.915Z,21.10
2023-02-09T15:24:54.248Z,20.63
2023-02-09T15:27:28.734Z,20.58
2023-02-09T15:29:58.503Z,20.63
2023-02-09T15:32:26.930Z,20.88
2023-02-09T15:34:54.446Z,20.27
2023-02-09T15:37:25.318Z,18.42
2023-02-09T15:39:56.603Z,19.63
2023-02-09T15:45:41.065Z,18.88
2023-02-09T15:48:08.257Z,20.63
2023-02-09T15:50:39.886Z,19.95
2023-02-09T15:53:14.691Z,20.45
2023-02-09T15:55:42.898Z,22.00
2023-02-09T15:58:15.069Z,21.20
2023-02-09T16:00:42.025Z,21.55
2023-02-09T16:03:15.620Z,22.17
2023-02-09T16:05:42.547Z,20.92
2023-02-09T16:08:18.868Z,20.73
2023-02-09T16:10:46.943Z,20.30
2023-02-09T16:13:18.827Z,20.33
2023-02-09T16:15:45.582Z,21.13
2023-02-09T16:18:12.066Z,20.50
2023-02-09T16:20:46.528Z,20.17
2023-02-09T16:23:20.589Z,18.95
2023-02-09T16:25:49.828Z,19.77
2023-02-09T16:28:16.897Z,21.02
2023-02-09T16:30:50.480Z,19.63
2023-02-09T16:33:17.428Z,21.88
2023-02-09T16:35:44.460Z,20.13
2023-02-09T16:38:19.153Z,19.27
2023-02-09T16:40:46.519Z,19.13
2023-02-09T16:43:13.305Z,20.00
2023-02-09T16:45:43.177Z,17.98
2023-02-09T16:48:25.374Z,19.65
2023-02-09T16:50:53.653Z,18.65
2023-02-09T16:53:36.589Z,20.40
2023-02-09T16:56:09.889Z,18.63
2023-02-09T16:58:37.280Z,19.98
2023-02-09T17:01:04.308Z,21.17
2023-02-09T17:03:39.248Z,25.10
2023-02-09T17:06:06.424Z,20.80
2023-02-09T17:08:34.682Z,24.30
2023-02-09T17:11:04.105Z,25.20
2023-02-09T17:13:31.246Z,23.25
2023-02-09T17:16:06.245Z,23.42
2023-02-09T17:18:38.911Z,22.27
2023-02-09T17:21:20.548Z,25.10
2023-02-09T17:23:47.281Z,25.33
2023-02-09T17:26:14.032Z,25.40
2023-02-09T17:28:42.956Z,25.48
2023-02-09T17:31:23.084Z,26.83
2023-02-09T17:33:56.681Z,26.85
2023-02-09T17:36:27.674Z,27.48
2023-02-09T17:38:56.843Z,34.50
2023-02-09T17:41:31.318Z,38.28
2023-02-09T17:44:20.819Z,35.60
2023-02-09T17:46:53.913Z,36.90
2023-02-09T17:49:20.364Z,32.22
2023-02-09T17:51:47.668Z,31.38
2023-02-09T17:54:16.501Z,29.55
2023-02-09T17:56:43.366Z,28.42
2023-02-09T17:59:10.009Z,29.23
2023-02-09T18:01:42.109Z,29.45
2023-02-09T18:04:16.900Z,29.88
2023-02-09T18:06:43.303Z,30.17
2023-02-09T18:09:14.330Z,29.67
2023-02-09T18:12:19.409Z,28.17
2023-02-09T18:14:45.847Z,28.27
2023-02-09T18:17:12.322Z,29.73
2023-02-09T18:19:38.733Z,26.98
2023-02-09T18:22:05.173Z,27.65
2023-02-09T18:24:34.140Z,29.92
2023-02-09T18:27:00.678Z,31.80
2023-02-09T18:29:29.488Z,30.92
2023-02-09T18:31:57.797Z,30.92
2023-02-09T18:34:24.657Z,29.67
2023-02-09T18:36:51.114Z,30.05
2023-02-09T18:39:17.569Z,30.98
2023-02-09T18:41:46.259Z,32.13
2023-02-09T18:44:12.709Z,33.55
2023-02-09T18:46:39.167Z,36.25
2023-02-09T18:49:05.595Z,35.80
2023-02-09T18:51:32.430Z,35.10
2023-02-09T18:54:00.164Z,35.42
2023-02-09T18:56:28.166Z,33.80
2023-02-09T18:58:54.794Z,37.28
2023-02-09T19:01:22.997Z,32.33
2023-02-09T19:03:54.078Z,30.73
2023-02-09T19:06:21.879Z,30.75
2023-02-09T19:08:50.318Z,32.25
2023-02-09T19:11:18.953Z,30.98
2023-02-09T19:14:05.625Z,30.60
2023-02-09T19:16:32.070Z,29.08
2023-02-09T19:18:59.112Z,29.83
2023-02-09T19:21:25.541Z,29.17
2023-02-09T19:23:53.900Z,28.75
2023-02-09T19:26:20.662Z,25.25
2023-02-09T19:28:48.182Z,28.42
2023-02-09T19:31:15.863Z,28.63
2023-02-09T19:33:42.318Z,25.77
2023-02-09T19:36:09.101Z,25.98
2023-02-09T19:38:35.521Z,27.13
2023-02-09T19:41:10.513Z,26.25
2023-02-09T19:43:39.197Z,26.52
2023-02-09T19:46:06.329Z,25.38
2023-02-09T19:48:33.040Z,26.42
2023-02-09T19:50:59.871Z,26.27
2023-02-09T19:53:26.875Z,25.77
2023-02-09T19:55:54.178Z,26.15
2023-02-09T19:58:21.721Z,26.55
2023-02-09T20:00:49.189Z,26.08
2023-02-09T20:03:16.161Z,27.27
2023-02-09T20:05:43.885Z,25.88
2023-02-09T20:08:13.644Z,25.17
2023-02-09T20:10:40.288Z,24.58
2023-02-09T20:13:07.174Z,26.90
2023-02-09T20:15:33.582Z,30.42
2023-02-09T20:18:00.007Z,30.00
2023-02-09T20:20:26.495Z,29.30
2023-02-09T20:22:53.762Z,27.27
2023-02-09T20:25:20.198Z,26.30
2023-02-09T20:27:48.650Z,26.35
2023-02-09T20:30:15.157Z,27.17
2023-02-09T20:32:41.640Z,26.77
2023-02-09T20:35:10.033Z,27.80
2023-02-09T20:37:36.738Z,28.08
2023-02-09T20:40:04.181Z,28.30
2023-02-09T20:42:48.945Z,25.77
2023-02-09T20:45:35.933Z,22.48
2023-02-09T20:48:04.093Z,24.00
2023-02-09T20:50:32.637Z,25.63
2023-02-09T20:53:01.331Z,29.60
2023-02-09T20:55:29.490Z,28.00
2023-02-09T20:57:56.094Z,28.13
2023-02-09T21:00:22.646Z,28.15
2023-02-09T21:02:49.219Z,27.60
2023-02-09T21:05:16.603Z,27.98
2023-02-09T21:07:43.158Z,28.98
2023-02-09T21:10:12.754Z,28.30
2023-02-09T21:12:39.148Z,27.65
2023-02-09T21:15:05.861Z,29.42
2023-02-09T21:17:32.300Z,31.08
2023-02-09T21:19:58.751Z,31.65
2023-02-09T21:22:25.124Z,31.65
2023-02-09T21:24:51.508Z,33.42
2023-02-09T21:27:17.956Z,35.30
2023-02-09T21:29:44.393Z,31.52
2023-02-09T21:32:11.098Z,28.30
2023-02-09T21:34:37.580Z,26.45
2023-02-09T21:37:07.683Z,28.08
2023-02-09T21:39:34.093Z,29.25
2023-02-09T21:42:19.175Z,27.10
2023-02-09T21:44:45.558Z,31.88
2023-02-09T21:47:12.073Z,32.88
2023-02-09T21:49:38.591Z,35.42
2023-02-09T21:52:05.402Z,36.17
2023-02-09T21:54:33.761Z,33.42
2023-02-09T21:57:03.616Z,28.63
2023-02-09T21:59:30.065Z,28.00
2023-02-09T22:01:56.646Z,29.50
2023-02-09T22:04:23.587Z,29.48
2023-02-09T22:06:50.047Z,26.27
2023-02-09T22:09:16.524Z,27.05
2023-02-09T22:11:42.958Z,27.45
2023-02-09T22:14:09.370Z,27.25
2023-02-09T22:16:35.895Z,28.00
2023-02-09T22:19:02.379Z,24.83
2023-02-09T22:21:28.813Z,22.20
2023-02-09T22:23:55.242Z,24.05
2023-02-09T22:26:21.918Z,22.75
2023-02-09T22:28:48.690Z,24.65
2023-02-09T22:31:17.602Z,23.77
2023-02-09T22:33:44.630Z,21.63
2023-02-09T22:36:13.799Z,22.75
2023-02-09T22:38:40.969Z,20.90
2023-02-09T22:41:21.422Z,23.50
2023-02-09T22:43:52.398Z,23.08
2023-02-09T22:46:20.493Z,22.80
2023-02-09T22:48:52.115Z,21.73
2023-02-09T22:51:18.868Z,23.60
2023-02-09T22:53:45.579Z,21.92
2023-02-09T22:56:12.860Z,23.00
2023-02-09T22:58:39.356Z,22.50
2023-02-09T23:01:06.885Z,26.83
2023-02-09T23:03:34.068Z,30.63
2023-02-09T23:06:02.264Z,31.40
2023-02-09T23:08:29.284Z,27.73
2023-02-09T23:11:02.017Z,29.38
2023-02-09T23:13:28.544Z,27.38
2023-02-09T23:15:54.953Z,29.67
2023-02-09T23:18:21.480Z,28.75
2023-02-09T23:20:48.985Z,29.90
2023-02-09T23:23:16.260Z,26.38
2023-02-09T23:25:42.777Z,27.25
2023-02-09T23:28:09.210Z,27.50
2023-02-09T23:30:35.686Z,25.20
2023-02-09T23:33:02.252Z,25.55
2023-02-09T23:35:28.732Z,24.60
2023-02-09T23:37:55.120Z,23.08
2023-02-09T23:40:21.500Z,23.60
2023-02-09T23:42:47.879Z,23.98
2023-02-09T23:45:14.401Z,24.50
2023-02-09T23:47:40.795Z,24.83
2023-02-09T23:50:07.292Z,25.13
2023-02-09T23:52:33.702Z,23.73
2023-02-09T23:55:00.232Z,22.58
2023-02-09T23:57:26.650Z,22.90
2023-02-09T23:59:53.059Z,23.65
